Savanna, OK (74565)

12:32 PM CST on January 25, 2015 (GMT -0600)
McAlester Regional | Change Station
CLOSE
Current Station
Airport
Location: McAlester,
Elevation: 768 ft
Nearby Weather Stations

Elev 768 ft 34.88 °N, 95.78 °W | Updated 39 minutes ago

Clear
Clear
55 °F
Feels Like 55 °F
N
22
Wind Variable Wind from WNW
Gusts 30 mph

Today
High -- | Low -- °F
--% Chance of Precip.
Yesterday
High -- | Low -- °F
Precip. -- in
7:26 AM 5:45 PM
Waxing Crescent, 34% visible
Pressure 29.94 in
Visibility 10.0 miles
Clouds Scattered Clouds 5500 ft
Dew Point 32 °F
Humidity 42%
Rainfall 0.00 in
Snow Depth Not available.
UV 3 out of 12
Pollen 5.40 out of 12
Air Quality Not available.
Flu Activity Not available.
METAR KMLC 251753Z AUTO 30019G26KT 10SM -RA SCT055 13/00 A2994 RMK AO2 PK WND 33031/1733 RAB1654 SLP139 P0000 60000 T01280000 10144 20050 51008

More Conditions Fewer Conditions

Pressure 29.94 in
Visibility 10.0 miles
Clouds Scattered Clouds 5500 ft
Dew Point 32 °F
Humidity 42%
Rainfall 0.00 in
Snow Depth Not available.
UV 3 out of 12
Pollen 5.40 out of 12
Air Quality Not available.
Flu Activity Not available.
METAR KMLC 251753Z AUTO 30019G26KT 10SM -RA SCT055 13/00 A2994 RMK AO2 PK WND 33031/1733 RAB1654 SLP139 P0000 60000 T01280000 10144 20050 51008

More Conditions Fewer Conditions

10-Day Weather Forecast

Almanac

Astronomy

Jan. 25, 2015 Rise Set
Actual Time
Civil Twilight
Nautical Twilight
Astronomical Twilight
Moon
Length of Visible Light
Length of Day
Tomorrow will be .
, % of the Moon is Illuminated

Today's Extremes

State Highs State Lows

Community

WunderPhotos

Upload Photos

1,790,015 photos uploaded!

WunderBlogs® & News

Nearby

Air Quality

  Air Quality AQ Index Pollutant
Not available.

Snow Depth

Station Depth Elevation

Earthquake Activity

City Distance Mag. Time & Date
Minimum magnitude displayed is 2.5.

Coastal Water Temperatures

Place Temperature

Nearby Weather Stations